createdAt,value
2022-10-06T00:00:28.494Z,0.43
2022-10-06T00:02:55.086Z,0.50
2022-10-06T00:05:22.039Z,0.60
2022-10-06T00:07:48.697Z,0.55
2022-10-06T00:10:15.650Z,0.50
2022-10-06T00:12:45.171Z,0.40
2022-10-06T00:17:39.577Z,0.50
2022-10-06T00:20:07.763Z,0.43
2022-10-06T00:22:40.068Z,0.60
2022-10-06T00:25:08.083Z,0.32
2022-10-06T00:27:40.918Z,0.52
2022-10-06T00:30:12.757Z,0.55
2022-10-06T00:32:39.931Z,0.40
2022-10-06T00:35:07.994Z,0.73
2022-10-06T00:37:37.922Z,0.43
2022-10-06T00:40:09.721Z,0.50
2022-10-06T00:43:00.841Z,0.55
2022-10-06T00:45:39.881Z,0.50
2022-10-06T00:48:18.621Z,0.68
2022-10-06T00:50:46.325Z,0.40
2022-10-06T00:53:14.554Z,0.47
2022-10-06T00:55:41.369Z,0.70
2022-10-06T00:58:09.707Z,0.63
2022-10-06T01:00:36.469Z,0.68
2022-10-06T01:03:07.128Z,0.75
2022-10-06T01:05:41.481Z,0.68
2022-10-06T01:08:08.837Z,0.40
2022-10-06T01:10:35.693Z,0.43
2022-10-06T01:13:02.565Z,0.50
2022-10-06T01:15:29.282Z,0.52
2022-10-06T01:18:02.538Z,0.60
2022-10-06T01:20:30.821Z,0.80
2022-10-06T01:23:01.569Z,1.15
2022-10-06T01:25:29.342Z,0.80
2022-10-06T01:27:57.347Z,1.17
2022-10-06T01:30:35.956Z,1.10
2022-10-06T01:33:02.722Z,0.80
2022-10-06T01:35:29.386Z,1.00
2022-10-06T01:37:58.767Z,1.20
2022-10-06T01:40:29.076Z,1.10
2022-10-06T01:42:57.901Z,0.98
2022-10-06T01:45:26.480Z,1.02
2022-10-06T01:47:53.058Z,1.20
2022-10-06T01:50:19.833Z,0.90
2022-10-06T01:52:46.453Z,0.90
2022-10-06T01:55:14.662Z,1.00
2022-10-06T01:57:43.610Z,0.90
2022-10-06T02:00:12.279Z,0.95
2022-10-06T02:02:43.571Z,1.10
2022-10-06T02:05:11.139Z,1.00
2022-10-06T02:07:41.577Z,1.10
2022-10-06T02:10:08.921Z,1.15
2022-10-06T02:12:35.589Z,1.00
2022-10-06T02:15:02.884Z,1.45
2022-10-06T02:17:29.688Z,1.20
2022-10-06T02:19:56.849Z,1.48
2022-10-06T02:22:23.542Z,1.30
2022-10-06T02:24:50.952Z,0.90
2022-10-06T02:27:18.097Z,1.45
2022-10-06T02:29:45.143Z,1.20
2022-10-06T02:32:13.375Z,1.30
2022-10-06T02:34:40.026Z,1.30
2022-10-06T02:37:07.381Z,1.30
2022-10-06T02:39:33.997Z,1.23
2022-10-06T02:42:01.547Z,0.90
2022-10-06T02:44:28.152Z,1.20
2022-10-06T02:46:56.222Z,1.30
2022-10-06T02:49:22.984Z,0.95
2022-10-06T02:51:51.622Z,1.35
2022-10-06T02:54:18.243Z,1.20
2022-10-06T02:56:45.421Z,1.10
2022-10-06T02:59:13.740Z,1.10
2022-10-06T03:01:41.980Z,2.65
2022-10-06T03:04:13.788Z,1.20
2022-10-06T03:06:42.155Z,1.30
2022-10-06T03:09:14.048Z,1.15
2022-10-06T03:11:43.332Z,1.30
2022-10-06T03:14:19.111Z,1.75
2022-10-06T03:16:50.263Z,2.30
2022-10-06T03:19:21.589Z,1.40
2022-10-06T03:21:48.712Z,1.60
2022-10-06T03:24:15.928Z,1.45
2022-10-06T03:29:16.165Z,1.17
2022-10-06T03:31:47.395Z,2.33
2022-10-06T03:34:15.133Z,1.67
2022-10-06T03:36:44.087Z,1.63
2022-10-06T03:39:11.443Z,1.55
2022-10-06T03:41:40.172Z,1.33
2022-10-06T03:44:08.888Z,1.60
2022-10-06T03:46:37.976Z,1.73
2022-10-06T03:49:07.009Z,1.40
2022-10-06T03:51:39.785Z,3.17
2022-10-06T03:54:12.463Z,1.38
2022-10-06T03:56:42.589Z,1.55
2022-10-06T04:01:47.587Z,1.60
2022-10-06T04:04:22.329Z,1.95
2022-10-06T04:06:52.406Z,1.52
2022-10-06T04:09:20.951Z,1.77
2022-10-06T04:11:47.596Z,1.77
2022-10-06T04:14:16.360Z,1.75
2022-10-06T04:19:20.110Z,2.10
2022-10-06T04:21:52.720Z,2.53
2022-10-06T04:24:22.023Z,1.83
2022-10-06T04:26:50.023Z,1.98
2022-10-06T04:29:18.059Z,1.77
2022-10-06T04:31:48.275Z,1.90
2022-10-06T04:34:21.404Z,1.70
2022-10-06T04:36:48.326Z,1.65
2022-10-06T04:39:16.731Z,2.78
2022-10-06T04:41:47.119Z,3.30
2022-10-06T04:44:19.338Z,1.55
2022-10-06T04:46:47.045Z,1.90
2022-10-06T04:49:19.920Z,1.88
2022-10-06T04:51:49.755Z,1.75
2022-10-06T04:54:17.576Z,2.80
2022-10-06T04:56:45.061Z,1.95
2022-10-06T04:59:11.898Z,1.83
2022-10-06T05:04:11.660Z,1.50
2022-10-06T05:06:41.233Z,1.65
2022-10-06T05:09:14.582Z,2.20
2022-10-06T05:11:54.276Z,1.95
2022-10-06T05:14:21.894Z,1.75
2022-10-06T05:16:49.776Z,1.80
2022-10-06T05:19:16.811Z,2.05
2022-10-06T05:21:43.549Z,2.10
2022-10-06T05:24:14.118Z,1.88
2022-10-06T05:26:40.842Z,2.10
2022-10-06T05:29:11.089Z,1.85
2022-10-06T05:31:40.360Z,2.00
2022-10-06T05:34:07.266Z,1.90
2022-10-06T05:36:35.091Z,1.98
2022-10-06T05:39:03.969Z,2.13
2022-10-06T05:41:42.452Z,1.98
2022-10-06T05:44:10.747Z,2.10
2022-10-06T05:46:39.408Z,2.25
2022-10-06T05:49:10.159Z,2.05
2022-10-06T05:51:40.450Z,1.80
2022-10-06T05:54:12.752Z,1.90
2022-10-06T05:56:39.365Z,2.08
2022-10-06T05:59:07.556Z,2.67
2022-10-06T06:01:36.653Z,2.30
2022-10-06T06:04:11.076Z,2.15
2022-10-06T06:06:44.790Z,2.13
2022-10-06T06:09:20.551Z,2.05
2022-10-06T06:11:51.104Z,1.92
2022-10-06T06:14:46.060Z,2.17
2022-10-06T06:17:21.676Z,1.40
2022-10-06T06:19:58.218Z,1.88
2022-10-06T06:22:30.054Z,1.90
2022-10-06T06:25:06.226Z,2.13
2022-10-06T06:27:46.571Z,2.90
2022-10-06T06:30:17.396Z,1.92
2022-10-06T06:32:57.294Z,1.88
2022-10-06T06:35:34.909Z,1.85
2022-10-06T06:38:40.557Z,2.53
2022-10-06T06:51:26.295Z,2.30
2022-10-06T06:54:36.460Z,2.45
2022-10-06T06:57:13.891Z,2.03
2022-10-06T06:59:47.713Z,2.17
2022-10-06T07:02:37.577Z,2.00
2022-10-06T07:11:58.032Z,2.20
2022-10-06T07:14:37.203Z,1.92
2022-10-06T07:17:48.767Z,1.85
2022-10-06T07:20:52.971Z,2.10
2022-10-06T07:23:44.805Z,2.15
2022-10-06T07:40:07.362Z,2.55
2022-10-06T07:43:02.070Z,3.40
2022-10-06T07:45:44.892Z,2.25
2022-10-06T07:48:21.228Z,2.13
2022-10-06T07:50:57.747Z,2.90
2022-10-06T07:53:32.124Z,2.35
2022-10-06T07:56:20.283Z,2.17
2022-10-06T07:58:51.346Z,2.25
2022-10-06T08:01:19.640Z,2.28
2022-10-06T08:03:48.564Z,2.40
2022-10-06T08:06:19.210Z,2.90
2022-10-06T08:08:52.434Z,2.30
2022-10-06T08:11:20.481Z,2.53
2022-10-06T08:13:48.344Z,2.33
2022-10-06T08:16:17.909Z,3.17
2022-10-06T08:18:53.355Z,3.75
2022-10-06T08:21:23.725Z,3.08
2022-10-06T08:23:51.471Z,2.53
2022-10-06T08:26:19.983Z,2.67
2022-10-06T08:28:48.933Z,2.50
2022-10-06T08:31:17.738Z,2.60
2022-10-06T08:33:45.679Z,2.42
2022-10-06T08:36:15.181Z,2.95
2022-10-06T08:38:42.530Z,2.30
2022-10-06T08:41:26.334Z,2.47
2022-10-06T08:43:59.218Z,2.65
2022-10-06T08:46:33.175Z,2.30
2022-10-06T08:49:02.381Z,2.53
2022-10-06T08:52:06.668Z,2.53
2022-10-06T08:55:12.992Z,2.03
2022-10-06T08:58:01.647Z,2.42
2022-10-06T09:00:33.071Z,2.80
2022-10-06T09:03:02.127Z,2.13
2022-10-06T09:05:31.144Z,1.98
2022-10-06T09:08:03.693Z,3.60
2022-10-06T09:11:05.787Z,2.90
2022-10-06T09:13:38.498Z,2.10
2022-10-06T09:16:16.958Z,2.30
2022-10-06T09:19:07.171Z,2.42
2022-10-06T09:21:45.974Z,2.28
2022-10-06T09:24:18.395Z,2.20
2022-10-06T09:26:48.635Z,1.83
2022-10-06T09:29:15.685Z,2.00
2022-10-06T09:31:50.378Z,2.30
2022-10-06T09:34:26.237Z,2.80
2022-10-06T09:37:02.942Z,2.17
2022-10-06T09:39:36.960Z,2.22
2022-10-06T09:42:09.731Z,2.60
2022-10-06T09:45:06.685Z,2.00
2022-10-06T09:47:39.653Z,2.08
2022-10-06T09:50:12.176Z,2.75
2022-10-06T09:52:40.266Z,1.92
2022-10-06T09:55:15.753Z,2.50
2022-10-06T09:57:51.484Z,2.55
2022-10-06T10:00:34.845Z,2.10
2022-10-06T10:03:08.097Z,2.33
2022-10-06T10:05:37.532Z,1.60
2022-10-06T10:08:22.205Z,1.90
2022-10-06T10:10:51.072Z,2.65
2022-10-06T10:13:26.568Z,2.30
2022-10-06T10:16:02.851Z,2.00
2022-10-06T10:18:31.808Z,1.92
2022-10-06T10:21:06.370Z,2.55
2022-10-06T10:23:39.308Z,2.25
2022-10-06T10:26:22.187Z,3.15
2022-10-06T10:29:32.780Z,1.95
2022-10-06T10:32:29.311Z,2.00
2022-10-06T10:34:59.677Z,1.98
2022-10-06T10:37:59.354Z,2.25
2022-10-06T10:43:23.329Z,2.60
2022-10-06T10:46:08.253Z,2.17
2022-10-06T10:49:01.385Z,1.80
2022-10-06T10:51:42.005Z,2.22
2022-10-06T10:54:15.151Z,1.73
2022-10-06T10:56:44.191Z,1.95
2022-10-06T10:59:23.725Z,2.38
2022-10-06T11:04:22.191Z,1.85
2022-10-06T11:06:54.540Z,1.70
2022-10-06T11:09:29.264Z,1.65
2022-10-06T11:12:04.788Z,1.77
2022-10-06T11:14:53.858Z,1.70
2022-10-06T11:17:45.338Z,1.92
2022-10-06T11:20:21.364Z,1.95
2022-10-06T11:23:05.104Z,2.08
2022-10-06T11:25:44.276Z,1.70
2022-10-06T11:28:17.243Z,1.85
2022-10-06T11:30:55.768Z,1.65
2022-10-06T11:33:49.486Z,1.63
2022-10-06T11:36:44.517Z,1.80
2022-10-06T11:39:18.957Z,1.42
2022-10-06T11:42:01.492Z,1.75
2022-10-06T11:44:49.487Z,1.35
2022-10-06T11:47:35.444Z,1.77
2022-10-06T11:50:03.075Z,1.65
2022-10-06T11:52:52.342Z,1.58
2022-10-06T11:55:26.133Z,1.20
2022-10-06T12:01:02.285Z,1.92
2022-10-06T12:03:31.100Z,1.92
2022-10-06T12:05:57.704Z,1.40
2022-10-06T12:08:38.582Z,1.30
2022-10-06T12:11:38.459Z,1.35
2022-10-06T12:17:18.486Z,1.60
2022-10-06T12:20:21.056Z,1.50
2022-10-06T12:22:52.325Z,1.70
2022-10-06T12:25:25.153Z,1.55
2022-10-06T12:28:44.094Z,1.52
2022-10-06T12:31:46.474Z,1.75
2022-10-06T12:34:50.673Z,1.88
2022-10-06T12:37:29.858Z,1.45
2022-10-06T12:40:34.027Z,2.38
2022-10-06T12:43:14.308Z,1.80
2022-10-06T12:45:56.936Z,1.80
2022-10-06T12:48:51.740Z,1.42
2022-10-06T12:51:34.900Z,1.65
2022-10-06T12:54:35.907Z,1.73
2022-10-06T12:57:15.350Z,1.70
2022-10-06T12:59:42.614Z,1.95
2022-10-06T13:02:19.973Z,1.70
2022-10-06T13:05:16.547Z,1.40
2022-10-06T13:08:05.443Z,1.55
2022-10-06T13:10:36.246Z,1.70
2022-10-06T13:13:28.058Z,2.15
2022-10-06T13:16:02.171Z,1.45
2022-10-06T13:18:49.104Z,1.63
2022-10-06T13:21:40.926Z,1.20
2022-10-06T13:24:22.128Z,1.77
2022-10-06T13:26:48.839Z,1.88
2022-10-06T13:29:24.566Z,1.60
2022-10-06T13:31:53.581Z,1.70
2022-10-06T13:34:32.370Z,2.03
2022-10-06T13:37:00.020Z,1.33
2022-10-06T13:39:31.860Z,1.88
2022-10-06T13:42:10.851Z,1.30
2022-10-06T13:44:42.218Z,1.77
2022-10-06T13:47:20.365Z,1.75
2022-10-06T13:49:53.438Z,1.63
2022-10-06T13:52:25.288Z,1.50
2022-10-06T13:54:51.806Z,1.50
2022-10-06T13:57:49.418Z,1.08
2022-10-06T14:00:20.958Z,1.33
2022-10-06T14:02:55.697Z,1.42
2022-10-06T14:05:30.216Z,1.77
2022-10-06T14:08:00.312Z,1.30
2022-10-06T14:10:32.072Z,1.65
2022-10-06T14:13:01.057Z,1.40
2022-10-06T14:15:37.352Z,1.67
2022-10-06T14:18:04.953Z,1.40
2022-10-06T14:20:49.076Z,1.85
2022-10-06T14:23:39.102Z,1.70
2022-10-06T14:26:06.351Z,1.70
2022-10-06T14:28:33.057Z,1.73
2022-10-06T14:30:59.876Z,1.90
2022-10-06T14:33:26.646Z,1.60
2022-10-06T14:35:53.510Z,1.80
2022-10-06T14:38:20.176Z,1.48
2022-10-06T14:40:46.699Z,1.55
2022-10-06T14:43:13.286Z,1.50
2022-10-06T14:45:44.087Z,1.77
2022-10-06T14:48:14.993Z,1.55
2022-10-06T14:50:45.167Z,1.90
2022-10-06T14:53:14.886Z,1.88
2022-10-06T14:55:41.483Z,2.17
2022-10-06T14:58:08.153Z,1.70
2022-10-06T15:00:34.874Z,1.70
2022-10-06T15:03:01.496Z,2.03
2022-10-06T15:05:28.106Z,1.73
2022-10-06T15:08:10.385Z,2.20
2022-10-06T15:10:38.982Z,1.70
2022-10-06T15:13:08.408Z,1.53
2022-10-06T15:18:02.863Z,2.15
2022-10-06T15:20:29.484Z,1.73
2022-10-06T15:22:56.434Z,2.42
2022-10-06T15:25:41.420Z,1.63
2022-10-06T15:28:30.816Z,2.10
2022-10-06T15:30:58.156Z,1.88
2022-10-06T15:33:27.049Z,1.65
2022-10-06T15:36:12.449Z,2.05
2022-10-06T15:38:38.994Z,2.90
2022-10-06T15:41:07.081Z,2.05
2022-10-06T15:43:52.097Z,2.40
2022-10-06T15:46:18.675Z,1.83
2022-10-06T15:48:45.265Z,2.58
2022-10-06T15:51:13.289Z,1.55
2022-10-06T15:53:39.887Z,1.92
2022-10-06T15:56:06.463Z,1.73
2022-10-06T15:58:33.556Z,2.15
2022-10-06T16:01:00.804Z,2.00
2022-10-06T16:03:40.212Z,2.55
2022-10-06T16:06:09.388Z,2.08
2022-10-06T16:08:36.472Z,2.00
2022-10-06T16:11:03.580Z,2.15
2022-10-06T16:13:30.788Z,2.05
2022-10-06T16:15:58.137Z,1.95
2022-10-06T16:18:25.225Z,1.83
2022-10-06T16:20:54.387Z,1.90
2022-10-06T16:23:22.113Z,1.83
2022-10-06T16:25:49.827Z,2.10
2022-10-06T16:28:16.953Z,1.98
2022-10-06T16:30:44.142Z,1.90
2022-10-06T16:33:11.176Z,2.08
2022-10-06T16:35:38.268Z,2.00
2022-10-06T16:38:05.215Z,2.15
2022-10-06T16:40:32.577Z,2.13
2022-10-06T16:43:28.529Z,2.20
2022-10-06T16:46:17.510Z,2.45
2022-10-06T16:49:23.364Z,2.65
2022-10-06T16:52:13.939Z,2.83
2022-10-06T16:55:18.528Z,3.20
2022-10-06T16:57:45.520Z,3.53
2022-10-06T17:03:42.573Z,3.22
2022-10-06T17:06:23.566Z,3.33
2022-10-06T17:09:01.273Z,3.50
2022-10-06T17:11:40.272Z,3.92
2022-10-06T17:14:10.325Z,4.05
2022-10-06T17:19:30.199Z,3.92
2022-10-06T17:21:59.426Z,4.00
2022-10-06T17:24:41.499Z,4.20
2022-10-06T17:27:10.083Z,4.32
2022-10-06T17:29:42.200Z,4.80
2022-10-06T17:32:11.912Z,4.55
2022-10-06T17:34:43.433Z,4.00
2022-10-06T17:37:24.819Z,4.22
2022-10-06T17:40:11.825Z,4.55
2022-10-06T17:43:28.230Z,3.88
2022-10-06T17:49:38.399Z,2.95
2022-10-06T17:52:37.990Z,3.05
2022-10-06T17:55:54.305Z,2.42
2022-10-06T18:02:25.095Z,3.03
2022-10-06T18:13:09.435Z,4.13
2022-10-06T18:15:53.227Z,4.10
2022-10-06T18:18:40.868Z,3.80
2022-10-06T18:21:29.934Z,3.75
2022-10-06T18:24:40.227Z,3.83
2022-10-06T18:27:35.853Z,3.75
2022-10-06T18:36:10.351Z,3.53
2022-10-06T18:36:41.482Z,3.88
2022-10-06T18:39:19.532Z,3.70
2022-10-06T18:42:03.196Z,3.47
2022-10-06T18:45:05.096Z,3.50
2022-10-06T18:48:05.851Z,3.33
2022-10-06T18:50:40.497Z,3.83
2022-10-06T18:53:10.625Z,4.30
2022-10-06T18:55:38.461Z,3.45
2022-10-06T18:58:18.357Z,4.60
2022-10-06T19:05:36.621Z,3.30
2022-10-06T19:08:19.186Z,3.92
2022-10-06T19:11:29.285Z,4.40
2022-10-06T19:14:38.236Z,5.38
2022-10-06T19:17:49.868Z,4.88
2022-10-06T19:20:33.558Z,4.05
2022-10-06T19:23:04.914Z,4.20
2022-10-06T19:25:35.968Z,4.63
2022-10-06T19:28:05.803Z,4.38
2022-10-06T19:30:32.527Z,4.65
2022-10-06T19:32:59.086Z,5.03
2022-10-06T19:35:25.856Z,4.50
2022-10-06T19:37:52.368Z,5.20
2022-10-06T19:40:19.008Z,4.88
2022-10-06T19:42:48.576Z,4.93
2022-10-06T19:47:44.860Z,4.38
2022-10-06T19:50:12.901Z,5.00
2022-10-06T19:52:40.986Z,4.55
2022-10-06T19:55:07.806Z,4.82
2022-10-06T19:57:34.517Z,5.30
2022-10-06T20:00:01.154Z,6.50
2022-10-06T20:02:28.845Z,5.55
2022-10-06T20:04:56.036Z,5.88
2022-10-06T20:07:25.463Z,4.80
2022-10-06T20:09:52.151Z,4.60
2022-10-06T20:12:24.367Z,4.93
2022-10-06T20:14:53.325Z,4.13
2022-10-06T20:17:20.761Z,4.13
2022-10-06T20:19:47.338Z,4.40
2022-10-06T20:22:13.906Z,4.32
2022-10-06T20:24:41.233Z,3.58
2022-10-06T20:27:08.794Z,4.28
2022-10-06T20:29:35.549Z,4.20
2022-10-06T20:32:02.390Z,4.28
2022-10-06T20:34:32.715Z,4.20
2022-10-06T20:37:02.542Z,4.15
2022-10-06T20:42:15.732Z,3.88
2022-10-06T20:44:43.036Z,4.65
2022-10-06T20:47:10.431Z,4.90
2022-10-06T20:49:37.238Z,4.43
2022-10-06T20:52:05.444Z,4.47
2022-10-06T20:54:34.769Z,4.53
2022-10-06T20:59:30.037Z,5.05
2022-10-06T21:01:59.844Z,5.65
2022-10-06T21:04:30.003Z,5.72
2022-10-06T21:06:57.142Z,5.03
2022-10-06T21:09:28.461Z,5.53
2022-10-06T21:11:57.281Z,5.68
2022-10-06T21:14:24.144Z,4.57
2022-10-06T21:16:51.284Z,4.78
2022-10-06T21:19:19.342Z,5.55
2022-10-06T21:21:50.743Z,5.07
2022-10-06T21:24:17.928Z,4.45
2022-10-06T21:26:45.027Z,5.22
2022-10-06T21:29:15.531Z,4.43
2022-10-06T21:31:43.910Z,4.88
2022-10-06T21:34:11.099Z,5.07
2022-10-06T21:36:38.295Z,5.70
2022-10-06T21:39:05.979Z,5.28
2022-10-06T21:41:38.744Z,4.93
2022-10-06T21:44:10.994Z,10.23
2022-10-06T21:46:37.717Z,7.68
2022-10-06T21:49:09.068Z,5.45
2022-10-06T21:51:36.323Z,5.43
2022-10-06T21:54:03.698Z,5.40
2022-10-06T21:56:32.591Z,5.15
2022-10-06T21:58:59.553Z,4.47
2022-10-06T22:01:31.565Z,4.05
2022-10-06T22:04:00.109Z,4.68
2022-10-06T22:06:31.756Z,4.63
2022-10-06T22:08:59.230Z,4.47
2022-10-06T22:11:31.243Z,3.60
2022-10-06T22:14:00.888Z,4.22
2022-10-06T22:16:30.255Z,3.90
2022-10-06T22:18:57.548Z,5.00
2022-10-06T22:21:30.014Z,4.70
2022-10-06T22:23:58.225Z,4.35
2022-10-06T22:26:26.197Z,4.63
2022-10-06T22:28:55.136Z,4.47
2022-10-06T22:31:26.022Z,4.75
2022-10-06T22:33:56.113Z,4.28
2022-10-06T22:36:23.539Z,3.70
2022-10-06T22:38:50.454Z,4.20
2022-10-06T22:41:17.750Z,3.70
2022-10-06T22:43:44.560Z,3.83
2022-10-06T22:46:11.827Z,3.55
2022-10-06T22:48:38.980Z,2.97
2022-10-06T22:51:06.414Z,3.08
2022-10-06T22:53:33.613Z,3.22
2022-10-06T22:56:01.840Z,3.45
2022-10-06T22:58:28.806Z,3.10
2022-10-06T23:00:55.857Z,3.65
2022-10-06T23:03:24.000Z,3.00
2022-10-06T23:05:58.763Z,3.20
2022-10-06T23:08:31.243Z,3.50
2022-10-06T23:11:07.069Z,3.28
2022-10-06T23:13:34.307Z,3.47
2022-10-06T23:16:07.850Z,3.30
2022-10-06T23:18:36.874Z,4.13
2022-10-06T23:21:04.171Z,4.20
2022-10-06T23:23:31.624Z,4.80
2022-10-06T23:26:04.291Z,5.03
2022-10-06T23:28:30.878Z,5.00
2022-10-06T23:30:57.445Z,4.13
2022-10-06T23:33:24.106Z,3.47
2022-10-06T23:35:58.563Z,3.67
2022-10-06T23:38:25.795Z,3.72
2022-10-06T23:40:52.688Z,3.30
2022-10-06T23:43:19.931Z,3.30
2022-10-06T23:45:46.580Z,3.42
2022-10-06T23:48:13.365Z,3.35
2022-10-06T23:50:40.463Z,3.60
2022-10-06T23:53:07.615Z,3.50
2022-10-06T23:55:34.151Z,3.92
2022-10-06T23:58:01.114Z,4.85
